sensor_id;sensor_type;location;lat;lon;timestamp;pressure;altitude;pressure_sealevel;temperature;humidity
78986;BME280;68384;55.750;48.746;2023-06-04T00:00:49;98642.06;;;17.17;55.42
78986;BME280;68384;55.750;48.746;2023-06-04T00:01:53;98644.72;;;17.15;55.65
78986;BME280;68384;55.750;48.746;2023-06-04T00:02:56;98641.22;;;17.16;55.49
78986;BME280;68384;55.750;48.746;2023-06-04T00:04:01;98642.97;;;17.14;55.58
78986;BME280;68384;55.750;48.746;2023-06-04T00:05:05;98640.38;;;17.14;55.37
78986;BME280;68384;55.750;48.746;2023-06-04T00:06:09;98639.53;;;17.14;55.61
78986;BME280;68384;55.750;48.746;2023-06-04T00:07:12;98634.28;;;17.12;55.64
78986;BME280;68384;55.750;48.746;2023-06-04T00:08:16;98636.03;;;17.12;55.72
78986;BME280;68384;55.750;48.746;2023-06-04T00:09:19;98640.44;;;17.10;55.58
78986;BME280;68384;55.750;48.746;2023-06-04T00:10:23;98643.91;;;17.10;55.69
78986;BME280;68384;55.750;48.746;2023-06-04T00:11:25;98644.78;;;17.09;55.62
78986;BME280;68384;55.750;48.746;2023-06-04T00:12:30;98642.19;;;17.09;55.89
78986;BME280;68384;55.750;48.746;2023-06-04T00:13:33;98643.94;;;17.09;55.90
78986;BME280;68384;55.750;48.746;2023-06-04T00:14:36;98638.72;;;17.07;55.75
78986;BME280;68384;55.750;48.746;2023-06-04T00:15:41;98641.34;;;17.07;55.89
78986;BME280;68384;55.750;48.746;2023-06-04T00:16:45;98649.22;;;17.06;56.20
78986;BME280;68384;55.750;48.746;2023-06-04T00:17:48;98643.13;;;17.05;56.24
78986;BME280;68384;55.750;48.746;2023-06-04T00:18:52;98643.13;;;17.05;56.23
78986;BME280;68384;55.750;48.746;2023-06-04T00:19:55;98646.63;;;17.04;56.27
78986;BME280;68384;55.750;48.746;2023-06-04T00:20:59;98639.63;;;17.03;56.20
78986;BME280;68384;55.750;48.746;2023-06-04T00:22:02;98647.50;;;17.03;56.42
78986;BME280;68384;55.750;48.746;2023-06-04T00:23:06;98649.25;;;17.03;56.46
78986;BME280;68384;55.750;48.746;2023-06-04T00:24:09;98651.00;;;17.01;56.30
78986;BME280;68384;55.750;48.746;2023-06-04T00:25:15;98647.53;;;17.02;56.59
78986;BME280;68384;55.750;48.746;2023-06-04T00:26:18;98650.19;;;17.00;56.65
78986;BME280;68384;55.750;48.746;2023-06-04T00:27:23;98652.78;;;16.99;56.31
78986;BME280;68384;55.750;48.746;2023-06-04T00:28:25;98645.81;;;16.99;56.56
78986;BME280;68384;55.750;48.746;2023-06-04T00:29:29;98644.06;;;16.98;56.32
78986;BME280;68384;55.750;48.746;2023-06-04T00:30:32;98649.31;;;17.00;56.52
78986;BME280;68384;55.750;48.746;2023-06-04T00:31:37;98651.03;;;16.99;56.38
78986;BME280;68384;55.750;48.746;2023-06-04T00:32:43;98652.78;;;16.99;56.63
78986;BME280;68384;55.750;48.746;2023-06-04T00:33:49;98652.78;;;16.99;56.58
78986;BME280;68384;55.750;48.746;2023-06-04T00:34:52;98647.59;;;16.97;56.75
78986;BME280;68384;55.750;48.746;2023-06-04T00:35:56;98645.84;;;16.98;56.88
78986;BME280;68384;55.750;48.746;2023-06-04T00:36:59;98649.34;;;16.97;56.98
78986;BME280;68384;55.750;48.746;2023-06-04T00:38:04;98650.22;;;16.97;56.65
78986;BME280;68384;55.750;48.746;2023-06-04T00:39:06;98647.59;;;16.97;56.57
78986;BME280;68384;55.750;48.746;2023-06-04T00:40:11;98635.38;;;16.98;56.89
78986;BME280;68384;55.750;48.746;2023-06-04T00:41:14;98638.00;;;16.98;56.77
78986;BME280;68384;55.750;48.746;2023-06-04T00:42:18;98645.84;;;16.98;56.75
78986;BME280;68384;55.750;48.746;2023-06-04T00:43:22;98643.19;;;16.99;56.93
78986;BME280;68384;55.750;48.746;2023-06-04T00:44:27;98644.94;;;16.99;56.75
78986;BME280;68384;55.750;48.746;2023-06-04T00:45:30;98631.94;;;16.90;56.77
78986;BME280;68384;55.750;48.746;2023-06-04T00:46:35;98642.31;;;16.99;56.77
78986;BME280;68384;55.750;48.746;2023-06-04T00:47:41;98644.94;;;17.00;56.75
78986;BME280;68384;55.750;48.746;2023-06-04T00:48:45;98641.41;;;17.01;56.92
78986;BME280;68384;55.750;48.746;2023-06-04T00:49:48;98649.28;;;17.01;57.01
78986;BME280;68384;55.750;48.746;2023-06-04T00:50:52;98644.03;;;17.03;56.69
78986;BME280;68384;55.750;48.746;2023-06-04T00:51:55;98639.63;;;17.03;57.00
78986;BME280;68384;55.750;48.746;2023-06-04T00:52:58;98638.75;;;17.04;56.68
78986;BME280;68384;55.750;48.746;2023-06-04T00:54:04;98643.13;;;17.05;56.77
78986;BME280;68384;55.750;48.746;2023-06-04T00:55:12;98644.84;;;17.08;56.79
78986;BME280;68384;55.750;48.746;2023-06-04T00:56:15;98641.34;;;17.07;56.67
78986;BME280;68384;55.750;48.746;2023-06-04T00:57:20;98643.06;;;17.10;56.95
78986;BME280;68384;55.750;48.746;2023-06-04T00:58:22;98641.31;;;17.10;56.67
78986;BME280;68384;55.750;48.746;2023-06-04T00:59:29;98640.44;;;17.11;56.74
78986;BME280;68384;55.750;48.746;2023-06-04T01:00:34;98638.66;;;17.13;56.86
78986;BME280;68384;55.750;48.746;2023-06-04T01:01:44;98630.78;;;17.13;57.15
78986;BME280;68384;55.750;48.746;2023-06-04T01:02:53;98642.06;;;17.17;56.68
78986;BME280;68384;55.750;48.746;2023-06-04T01:04:00;98649.06;;;17.18;56.53
78986;BME280;68384;55.750;48.746;2023-06-04T01:05:08;98642.06;;;17.18;56.72
78986;BME280;68384;55.750;48.746;2023-06-04T01:06:19;98643.81;;;17.19;56.84
78986;BME280;68384;55.750;48.746;2023-06-04T01:07:25;98638.53;;;17.21;56.73
78986;BME280;68384;55.750;48.746;2023-06-04T01:08:31;98648.16;;;17.22;56.78
78986;BME280;68384;55.750;48.746;2023-06-04T01:09:34;98649.84;;;17.23;56.82
78986;BME280;68384;55.750;48.746;2023-06-04T01:10:50;98655.09;;;17.24;56.73
78986;BME280;68384;55.750;48.746;2023-06-04T01:11:54;98649.84;;;17.24;56.56
78986;BME280;68384;55.750;48.746;2023-06-04T01:13:00;98649.81;;;17.26;56.85
78986;BME280;68384;55.750;48.746;2023-06-04T01:14:04;98648.94;;;17.27;56.85
78986;BME280;68384;55.750;48.746;2023-06-04T01:15:10;98650.66;;;17.28;56.72
78986;BME280;68384;55.750;48.746;2023-06-04T01:16:14;98651.53;;;17.28;56.41
78986;BME280;68384;55.750;48.746;2023-06-04T01:17:21;98641.97;;;17.27;56.65
78986;BME280;68384;55.750;48.746;2023-06-04T01:18:28;98648.03;;;17.29;56.45
78986;BME280;68384;55.750;48.746;2023-06-04T01:19:57;98652.41;;;17.30;56.83
78986;BME280;68384;55.750;48.746;2023-06-04T01:21:08;98648.88;;;17.31;56.48
78986;BME280;68384;55.750;48.746;2023-06-04T01:22:21;98634.91;;;17.31;56.88
78986;BME280;68384;55.750;48.746;2023-06-04T01:23:38;98643.63;;;17.33;56.82
78986;BME280;68384;55.750;48.746;2023-06-04T01:24:50;98641.84;;;17.33;56.49
78986;BME280;68384;55.750;48.746;2023-06-04T01:25:55;98634.84;;;17.34;56.86
78986;BME280;68384;55.750;48.746;2023-06-04T01:27:00;98637.47;;;17.35;56.48
78986;BME280;68384;55.750;48.746;2023-06-04T01:28:04;98640.09;;;17.35;56.40
78986;BME280;68384;55.750;48.746;2023-06-04T01:29:08;98638.31;;;17.38;56.86
78986;BME280;68384;55.750;48.746;2023-06-04T01:30:13;98638.28;;;17.39;56.85
78986;BME280;68384;55.750;48.746;2023-06-04T01:31:18;98633.91;;;17.40;56.56
78986;BME280;68384;55.750;48.746;2023-06-04T01:32:25;98634.75;;;17.43;56.59
78986;BME280;68384;55.750;48.746;2023-06-04T01:33:31;98646.09;;;17.44;56.41
78986;BME280;68384;55.750;48.746;2023-06-04T01:34:43;98644.31;;;17.46;56.64
78986;BME280;68384;55.750;48.746;2023-06-04T01:35:48;98655.66;;;17.46;56.59
78986;BME280;68384;55.750;48.746;2023-06-04T01:36:51;98649.50;;;17.47;56.79
78986;BME280;68384;55.750;48.746;2023-06-04T01:37:55;98656.53;;;17.48;56.84
78986;BME280;68384;55.750;48.746;2023-06-04T01:38:58;98660.88;;;17.49;56.53
78986;BME280;68384;55.750;48.746;2023-06-04T01:40:03;98658.22;;;17.51;56.47
78986;BME280;68384;55.750;48.746;2023-06-04T01:41:07;98651.22;;;17.53;56.65
78986;BME280;68384;55.750;48.746;2023-06-04T01:42:11;98654.69;;;17.55;56.57
78986;BME280;68384;55.750;48.746;2023-06-04T01:43:14;98652.91;;;17.57;56.64
78986;BME280;68384;55.750;48.746;2023-06-04T01:44:18;98657.28;;;17.56;56.32
78986;BME280;68384;55.750;48.746;2023-06-04T01:45:22;98657.25;;;17.59;56.38
78986;BME280;68384;55.750;48.746;2023-06-04T01:46:26;98652.88;;;17.60;56.17
78986;BME280;68384;55.750;48.746;2023-06-04T01:47:29;98652.88;;;17.60;56.43
78986;BME280;68384;55.750;48.746;2023-06-04T01:48:34;98657.19;;;17.61;56.42
78986;BME280;68384;55.750;48.746;2023-06-04T01:49:37;98658.94;;;17.62;56.28
78986;BME280;68384;55.750;48.746;2023-06-04T01:50:42;98654.59;;;17.61;56.50
78986;BME280;68384;55.750;48.746;2023-06-04T01:51:46;98662.44;;;17.61;56.15
78986;BME280;68384;55.750;48.746;2023-06-04T01:52:49;98661.53;;;17.65;56.54
78986;BME280;68384;55.750;48.746;2023-06-04T01:53:53;98660.69;;;17.63;56.22
78986;BME280;68384;55.750;48.746;2023-06-04T01:54:56;98655.44;;;17.61;56.54
78986;BME280;68384;55.750;48.746;2023-06-04T01:56:01;98662.41;;;17.64;56.56
78986;BME280;68384;55.750;48.746;2023-06-04T01:57:04;98657.19;;;17.62;56.55
78986;BME280;68384;55.750;48.746;2023-06-04T01:58:09;98657.19;;;17.62;56.36
78986;BME280;68384;55.750;48.746;2023-06-04T01:59:12;98656.31;;;17.63;56.63
78986;BME280;68384;55.750;48.746;2023-06-04T02:00:18;98655.44;;;17.63;56.32
78986;BME280;68384;55.750;48.746;2023-06-04T02:01:21;98658.03;;;17.66;56.65
78986;BME280;68384;55.750;48.746;2023-06-04T02:02:25;98656.25;;;17.66;56.58
78986;BME280;68384;55.750;48.746;2023-06-04T02:03:28;98654.50;;;17.67;56.70
78986;BME280;68384;55.750;48.746;2023-06-04T02:04:41;98653.59;;;17.69;56.32
78986;BME280;68384;55.750;48.746;2023-06-04T02:05:44;98651.88;;;17.68;56.40
78986;BME280;68384;55.750;48.746;2023-06-04T02:06:50;98650.13;;;17.67;56.56
78986;BME280;68384;55.750;48.746;2023-06-04T02:07:53;98659.69;;;17.70;56.52
78986;BME280;68384;55.750;48.746;2023-06-04T02:08:57;98657.13;;;17.68;56.40
78986;BME280;68384;55.750;48.746;2023-06-04T02:10:00;98657.06;;;17.70;56.67
78986;BME280;68384;55.750;48.746;2023-06-04T02:11:05;98658.00;;;17.67;56.42
78986;BME280;68384;55.750;48.746;2023-06-04T02:12:08;98667.66;;;17.64;56.79
78986;BME280;68384;55.750;48.746;2023-06-04T02:13:15;98664.97;;;17.67;56.89
78986;BME280;68384;55.750;48.746;2023-06-04T02:14:18;98661.50;;;17.66;56.78
78986;BME280;68384;55.750;48.746;2023-06-04T02:15:23;98657.94;;;17.69;56.72
78986;BME280;68384;55.750;48.746;2023-06-04T02:16:26;98661.44;;;17.69;56.65
78986;BME280;68384;55.750;48.746;2023-06-04T02:17:30;98656.25;;;17.68;56.92
78986;BME280;68384;55.750;48.746;2023-06-04T02:18:34;98664.09;;;17.68;56.75
78986;BME280;68384;55.750;48.746;2023-06-04T02:19:38;98660.66;;;17.64;56.83
78986;BME280;68384;55.750;48.746;2023-06-04T02:20:43;98669.44;;;17.63;57.10
78986;BME280;68384;55.750;48.746;2023-06-04T02:21:47;98667.63;;;17.65;57.13
78986;BME280;68384;55.750;48.746;2023-06-04T02:22:50;98673.75;;;17.66;57.12
78986;BME280;68384;55.750;48.746;2023-06-04T02:23:54;98656.31;;;17.63;57.20
78986;BME280;68384;55.750;48.746;2023-06-04T02:24:57;98659.81;;;17.62;57.35
78986;BME280;68384;55.750;48.746;2023-06-04T02:26:01;98663.34;;;17.58;57.30
78986;BME280;68384;55.750;48.746;2023-06-04T02:27:05;98659.03;;;17.56;57.22
78986;BME280;68384;55.750;48.746;2023-06-04T02:28:10;98659.91;;;17.58;57.07
78986;BME280;68384;55.750;48.746;2023-06-04T02:29:13;98661.59;;;17.59;57.23
78986;BME280;68384;55.750;48.746;2023-06-04T02:30:17;98661.56;;;17.62;57.50
78986;BME280;68384;55.750;48.746;2023-06-04T02:31:20;98661.53;;;17.65;57.29
78986;BME280;68384;55.750;48.746;2023-06-04T02:32:25;98662.41;;;17.65;57.20
78986;BME280;68384;55.750;48.746;2023-06-04T02:33:28;98661.47;;;17.68;57.14
78986;BME280;68384;55.750;48.746;2023-06-04T02:34:32;98659.69;;;17.70;57.29
78986;BME280;68384;55.750;48.746;2023-06-04T02:35:36;98657.91;;;17.72;57.12
78986;BME280;68384;55.750;48.746;2023-06-04T02:36:42;98659.63;;;17.74;57.39
78986;BME280;68384;55.750;48.746;2023-06-04T02:37:53;98656.06;;;17.78;57.33
78986;BME280;68384;55.750;48.746;2023-06-04T02:38:58;98651.66;;;17.80;57.12
78986;BME280;68384;55.750;48.746;2023-06-04T02:40:01;98655.13;;;17.84;57.23
78986;BME280;68384;55.750;48.746;2023-06-04T02:41:06;98661.19;;;17.87;57.08
78986;BME280;68384;55.750;48.746;2023-06-04T02:42:09;98657.66;;;17.90;57.16
78986;BME280;68384;55.750;48.746;2023-06-04T02:43:13;98663.69;;;17.93;56.99
78986;BME280;68384;55.750;48.746;2023-06-04T02:44:16;98664.50;;;17.97;56.73
78986;BME280;68384;55.750;48.746;2023-06-04T02:45:20;98661.84;;;18.00;56.80
78986;BME280;68384;55.750;48.746;2023-06-04T02:46:24;98671.44;;;18.01;56.99
78986;BME280;68384;55.750;48.746;2023-06-04T02:47:28;98661.78;;;18.03;56.90
78986;BME280;68384;55.750;48.746;2023-06-04T02:48:31;98662.63;;;18.05;56.55
78986;BME280;68384;55.750;48.746;2023-06-04T02:49:35;98664.28;;;18.11;56.67
78986;BME280;68384;55.750;48.746;2023-06-04T02:50:38;98660.78;;;18.12;56.86
78986;BME280;68384;55.750;48.746;2023-06-04T02:51:46;98660.69;;;18.16;56.41
78986;BME280;68384;55.750;48.746;2023-06-04T02:52:49;98665.84;;;18.22;56.91
78986;BME280;68384;55.750;48.746;2023-06-04T02:53:53;98662.25;;;18.26;56.44
78986;BME280;68384;55.750;48.746;2023-06-04T02:54:55;98663.91;;;18.33;56.66
78986;BME280;68384;55.750;48.746;2023-06-04T02:55:59;98666.41;;;18.42;56.13
78986;BME280;68384;55.750;48.746;2023-06-04T02:57:02;98662.72;;;18.52;55.97
78986;BME280;68384;55.750;48.746;2023-06-04T02:58:07;98660.75;;;18.64;55.67
78986;BME280;68384;55.750;48.746;2023-06-04T02:59:11;98662.28;;;18.74;55.79
78986;BME280;68384;55.750;48.746;2023-06-04T03:00:16;98656.94;;;18.80;55.52
78986;BME280;68384;55.750;48.746;2023-06-04T03:01:23;98655.91;;;18.87;54.78
78986;BME280;68384;55.750;48.746;2023-06-04T03:02:27;98660.09;;;18.97;54.75
78986;BME280;68384;55.750;48.746;2023-06-04T03:03:30;98659.09;;;19.02;55.08
78986;BME280;68384;55.750;48.746;2023-06-04T03:04:35;98683.53;;;19.06;54.75
78986;BME280;68384;55.750;48.746;2023-06-04T03:05:38;98694.03;;;19.06;54.94
78986;BME280;68384;55.750;48.746;2023-06-04T03:06:43;98713.34;;;19.05;54.71
78986;BME280;68384;55.750;48.746;2023-06-04T03:07:49;98699.28;;;19.06;55.62
78986;BME280;68384;55.750;48.746;2023-06-04T03:08:52;98695.88;;;19.02;56.09
78986;BME280;68384;55.750;48.746;2023-06-04T03:09:55;98694.97;;;19.03;56.08
78986;BME280;68384;55.750;48.746;2023-06-04T03:10:59;98699.41;;;19.01;56.28
78986;BME280;68384;55.750;48.746;2023-06-04T03:12:03;98695.94;;;18.98;57.08
78986;BME280;68384;55.750;48.746;2023-06-04T03:13:07;98695.22;;;18.91;57.36
78986;BME280;68384;55.750;48.746;2023-06-04T03:14:10;98693.59;;;18.86;57.42
78986;BME280;68384;55.750;48.746;2023-06-04T03:15:13;98687.63;;;18.78;58.13
78986;BME280;68384;55.750;48.746;2023-06-04T03:16:16;98688.59;;;18.71;58.02
78986;BME280;68384;55.750;48.746;2023-06-04T03:17:20;98694.94;;;18.61;58.69
78986;BME280;68384;55.750;48.746;2023-06-04T03:18:24;98693.28;;;18.55;58.48
78986;BME280;68384;55.750;48.746;2023-06-04T03:19:28;98696.94;;;18.46;58.87
78986;BME280;68384;55.750;48.746;2023-06-04T03:20:31;98697.03;;;18.37;59.66
78986;BME280;68384;55.750;48.746;2023-06-04T03:21:40;98698.09;;;18.29;59.89
78986;BME280;68384;55.750;48.746;2023-06-04T03:22:44;98697.31;;;18.22;59.75
78986;BME280;68384;55.750;48.746;2023-06-04T03:23:50;98698.28;;;18.17;60.06
78986;BME280;68384;55.750;48.746;2023-06-04T03:24:53;98699.22;;;18.13;60.84
78986;BME280;68384;55.750;48.746;2023-06-04T03:25:57;98698.47;;;18.06;60.54
78986;BME280;68384;55.750;48.746;2023-06-04T03:27:00;98695.09;;;17.97;61.10
78986;BME280;68384;55.750;48.746;2023-06-04T03:28:05;98695.22;;;17.89;61.43
78986;BME280;68384;55.750;48.746;2023-06-04T03:29:09;98690.06;;;17.84;61.73
78986;BME280;68384;55.750;48.746;2023-06-04T03:30:12;98687.56;;;17.77;61.72
78986;BME280;68384;55.750;48.746;2023-06-04T03:31:29;98685.88;;;17.73;61.56
78986;BME280;68384;55.750;48.746;2023-06-04T03:32:35;98685.94;;;17.67;61.97
78986;BME280;68384;55.750;48.746;2023-06-04T03:33:38;98686.88;;;17.64;62.16
78986;BME280;68384;55.750;48.746;2023-06-04T03:34:42;98682.63;;;17.57;61.41
78986;BME280;68384;55.750;48.746;2023-06-04T03:35:46;98687.84;;;17.56;61.24
78986;BME280;68384;55.750;48.746;2023-06-04T03:36:51;98685.31;;;17.50;61.13
78986;BME280;68384;55.750;48.746;2023-06-04T03:37:55;98694.91;;;17.52;61.68
78986;BME280;68384;55.750;48.746;2023-06-04T03:38:59;98691.38;;;17.53;61.33
78986;BME280;68384;55.750;48.746;2023-06-04T03:40:05;98686.97;;;17.55;61.69
78986;BME280;68384;55.750;48.746;2023-06-04T03:41:12;98687.84;;;17.56;61.86
78986;BME280;68384;55.750;48.746;2023-06-04T03:42:17;98690.44;;;17.60;61.77
78986;BME280;68384;55.750;48.746;2023-06-04T03:43:21;98683.38;;;17.64;61.59
78986;BME280;68384;55.750;48.746;2023-06-04T03:44:29;98686.81;;;17.67;61.27
78986;BME280;68384;55.750;48.746;2023-06-04T03:45:32;98692.84;;;17.74;61.76
78986;BME280;68384;55.750;48.746;2023-06-04T03:46:36;98683.13;;;17.80;62.26
78986;BME280;68384;55.750;48.746;2023-06-04T03:47:39;98679.63;;;17.81;61.77
78986;BME280;68384;55.750;48.746;2023-06-04T03:48:44;98681.19;;;17.91;61.04
78986;BME280;68384;55.750;48.746;2023-06-04T03:49:47;98679.38;;;17.98;60.79
78986;BME280;68384;55.750;48.746;2023-06-04T03:50:51;98687.94;;;18.09;60.90
78986;BME280;68384;55.750;48.746;2023-06-04T03:51:54;98685.13;;;18.18;60.66
78986;BME280;68384;55.750;48.746;2023-06-04T03:52:59;98688.50;;;18.26;60.15
78986;BME280;68384;55.750;48.746;2023-06-04T03:54:06;98694.47;;;18.34;59.91
78986;BME280;68384;55.750;48.746;2023-06-04T03:55:11;98704.94;;;18.39;59.40
78986;BME280;68384;55.750;48.746;2023-06-04T03:56:16;98696.94;;;18.46;59.08
78986;BME280;68384;55.750;48.746;2023-06-04T03:57:19;98703.75;;;18.57;59.21
78986;BME280;68384;55.750;48.746;2023-06-04T03:58:23;98712.34;;;18.65;58.80
78986;BME280;68384;55.750;48.746;2023-06-04T03:59:27;98716.66;;;18.69;58.47
78986;BME280;68384;55.750;48.746;2023-06-04T04:00:31;98724.53;;;18.67;58.21
78986;BME280;68384;55.750;48.746;2023-06-04T04:01:36;98705.22;;;18.71;57.98
78986;BME280;68384;55.750;48.746;2023-06-04T04:02:41;98691.28;;;18.68;57.32
78986;BME280;68384;55.750;48.746;2023-06-04T04:03:53;98705.09;;;18.79;58.67
78986;BME280;68384;55.750;48.746;2023-06-04T04:04:57;98703.38;;;18.76;57.99
78986;BME280;68384;55.750;48.746;2023-06-04T04:06:00;98707.69;;;18.80;58.17
78986;BME280;68384;55.750;48.746;2023-06-04T04:07:04;98706.78;;;18.83;57.67
78986;BME280;68384;55.750;48.746;2023-06-04T04:08:07;98710.34;;;18.79;58.18
78986;BME280;68384;55.750;48.746;2023-06-04T04:09:13;98712.03;;;18.83;58.24
78986;BME280;68384;55.750;48.746;2023-06-04T04:10:16;98711.19;;;18.79;58.86
78986;BME280;68384;55.750;48.746;2023-06-04T04:11:21;98707.66;;;18.82;59.42
78986;BME280;68384;55.750;48.746;2023-06-04T04:12:25;98710.34;;;18.79;59.44
78986;BME280;68384;55.750;48.746;2023-06-04T04:13:29;98726.09;;;18.79;58.97
78986;BME280;68384;55.750;48.746;2023-06-04T04:14:32;98719.22;;;18.72;59.42
78986;BME280;68384;55.750;48.746;2023-06-04T04:15:37;98728.19;;;18.62;59.51
78986;BME280;68384;55.750;48.746;2023-06-04T04:16:40;98726.59;;;18.51;59.44
78986;BME280;68384;55.750;48.746;2023-06-04T04:17:44;98725.84;;;18.43;59.89
78986;BME280;68384;55.750;48.746;2023-06-04T04:18:47;98719.81;;;18.37;60.01
78986;BME280;68384;55.750;48.746;2023-06-04T04:19:51;98728.66;;;18.31;60.56
78986;BME280;68384;55.750;48.746;2023-06-04T04:20:54;98720.84;;;18.28;61.01
78986;BME280;68384;55.750;48.746;2023-06-04T04:21:58;98724.47;;;18.18;60.99
78986;BME280;68384;55.750;48.746;2023-06-04T04:23:02;98727.16;;;18.17;61.40
78986;BME280;68384;55.750;48.746;2023-06-04T04:24:06;98719.28;;;18.17;61.95
78986;BME280;68384;55.750;48.746;2023-06-04T04:25:12;98725.59;;;18.04;62.38
78986;BME280;68384;55.750;48.746;2023-06-04T04:26:15;98719.44;;;18.05;62.73
78986;BME280;68384;55.750;48.746;2023-06-04T04:27:23;98722.91;;;18.08;62.76
78986;BME280;68384;55.750;48.746;2023-06-04T04:28:26;98721.97;;;18.12;62.95
78986;BME280;68384;55.750;48.746;2023-06-04T04:29:32;98723.75;;;18.10;63.74
78986;BME280;68384;55.750;48.746;2023-06-04T04:30:35;98724.53;;;18.17;63.53
78986;BME280;68384;55.750;48.746;2023-06-04T04:31:41;98726.31;;;18.13;63.42
78986;BME280;68384;55.750;48.746;2023-06-04T04:32:44;98724.47;;;18.18;63.36
78986;BME280;68384;55.750;48.746;2023-06-04T04:33:57;98738.34;;;18.26;63.19
78986;BME280;68384;55.750;48.746;2023-06-04T04:35:00;98740.97;;;18.26;63.44
78986;BME280;68384;55.750;48.746;2023-06-04T04:36:10;98741.09;;;18.20;63.06
78986;BME280;68384;55.750;48.746;2023-06-04T04:37:20;98748.91;;;18.22;63.57
78986;BME280;68384;55.750;48.746;2023-06-04T04:38:27;98743.75;;;18.16;63.66
78986;BME280;68384;55.750;48.746;2023-06-04T04:39:35;98756.91;;;18.14;63.97
78986;BME280;68384;55.750;48.746;2023-06-04T04:40:41;98766.59;;;18.11;64.00
78986;BME280;68384;55.750;48.746;2023-06-04T04:41:45;98769.28;;;18.06;63.67
78986;BME280;68384;55.750;48.746;2023-06-04T04:42:49;98760.50;;;18.07;63.30
78986;BME280;68384;55.750;48.746;2023-06-04T04:43:54;98761.38;;;18.08;62.69
78986;BME280;68384;55.750;48.746;2023-06-04T04:45:03;98762.31;;;18.04;62.69
78986;BME280;68384;55.750;48.746;2023-06-04T04:46:06;98772.97;;;17.93;63.32
78986;BME280;68384;55.750;48.746;2023-06-04T04:47:11;98774.69;;;17.94;63.63
78986;BME280;68384;55.750;48.746;2023-06-04T04:48:13;98772.09;;;17.92;63.50
78986;BME280;68384;55.750;48.746;2023-06-04T04:49:17;98772.91;;;17.98;63.28
78986;BME280;68384;55.750;48.746;2023-06-04T04:50:21;98761.47;;;18.03;63.25
78986;BME280;68384;55.750;48.746;2023-06-04T04:51:25;98764.91;;;18.07;62.67
78986;BME280;68384;55.750;48.746;2023-06-04T04:52:30;98765.66;;;18.15;62.86
78986;BME280;68384;55.750;48.746;2023-06-04T04:53:34;98772.56;;;18.20;62.28
78986;BME280;68384;55.750;48.746;2023-06-04T04:54:39;98778.56;;;18.28;62.82
78986;BME280;68384;55.750;48.746;2023-06-04T04:55:45;98778.47;;;18.33;62.65
78986;BME280;68384;55.750;48.746;2023-06-04T04:56:48;98780.28;;;18.29;62.19
78986;BME280;68384;55.750;48.746;2023-06-04T04:58:12;98781.09;;;18.33;62.86
78986;BME280;68384;55.750;48.746;2023-06-04T04:59:17;98790.66;;;18.38;62.77
78986;BME280;68384;55.750;48.746;2023-06-04T05:00:20;98795.84;;;18.43;62.92
78986;BME280;68384;55.750;48.746;2023-06-04T05:01:28;98799.28;;;18.46;62.79
78986;BME280;68384;55.750;48.746;2023-06-04T05:02:31;98793.25;;;18.41;62.42
78986;BME280;68384;55.750;48.746;2023-06-04T05:03:35;98789.88;;;18.30;63.12
78986;BME280;68384;55.750;48.746;2023-06-04T05:04:38;98802.06;;;18.34;62.81
78986;BME280;68384;55.750;48.746;2023-06-04T05:05:43;98796.81;;;18.36;62.98
78986;BME280;68384;55.750;48.746;2023-06-04T05:06:47;98792.34;;;18.44;62.58
78986;BME280;68384;55.750;48.746;2023-06-04T05:07:51;98793.13;;;18.50;62.68
78986;BME280;68384;55.750;48.746;2023-06-04T05:08:56;98795.63;;;18.57;62.80
78986;BME280;68384;55.750;48.746;2023-06-04T05:10:00;98795.56;;;18.61;62.30
78986;BME280;68384;55.750;48.746;2023-06-04T05:11:07;98799.84;;;18.65;61.63
78986;BME280;68384;55.750;48.746;2023-06-04T05:12:12;98804.19;;;18.68;61.56
78986;BME280;68384;55.750;48.746;2023-06-04T05:13:15;98804.13;;;18.71;61.34
78986;BME280;68384;55.750;48.746;2023-06-04T05:14:28;98798.91;;;18.69;61.36
78986;BME280;68384;55.750;48.746;2023-06-04T05:15:31;98806.97;;;18.59;61.79
78986;BME280;68384;55.750;48.746;2023-06-04T05:16:35;98812.09;;;18.65;62.00
78986;BME280;68384;55.750;48.746;2023-06-04T05:17:38;98813.84;;;18.66;62.09
78986;BME280;68384;55.750;48.746;2023-06-04T05:18:45;98812.88;;;18.71;62.35
78986;BME280;68384;55.750;48.746;2023-06-04T05:19:53;98819.97;;;18.66;61.84
78986;BME280;68384;55.750;48.746;2023-06-04T05:20:58;98819.94;;;18.68;61.63
78986;BME280;68384;55.750;48.746;2023-06-04T05:22:04;98819.16;;;18.63;60.44
78986;BME280;68384;55.750;48.746;2023-06-04T05:23:08;98822.56;;;18.69;60.11
78986;BME280;68384;55.750;48.746;2023-06-04T05:24:12;98821.69;;;18.69;59.99
78986;BME280;68384;55.750;48.746;2023-06-04T05:25:16;98826.94;;;18.67;60.35
78986;BME280;68384;55.750;48.746;2023-06-04T05:26:21;98828.78;;;18.62;60.29
78986;BME280;68384;55.750;48.746;2023-06-04T05:27:27;98825.03;;;18.77;59.95
78986;BME280;68384;55.750;48.746;2023-06-04T05:28:30;98835.44;;;18.81;60.10
78986;BME280;68384;55.750;48.746;2023-06-04T05:29:35;98836.31;;;18.82;60.54
78986;BME280;68384;55.750;48.746;2023-06-04T05:30:39;98832.59;;;18.95;59.91
78986;BME280;68384;55.750;48.746;2023-06-04T05:31:45;98829.78;;;19.05;60.02
78986;BME280;68384;55.750;48.746;2023-06-04T05:32:50;98827.03;;;19.11;60.38
78986;BME280;68384;55.750;48.746;2023-06-04T05:33:59;98828.78;;;19.11;60.00
78986;BME280;68384;55.750;48.746;2023-06-04T05:35:05;98822.56;;;19.17;59.87
78986;BME280;68384;55.750;48.746;2023-06-04T05:36:09;98836.69;;;19.11;59.96
78986;BME280;68384;55.750;48.746;2023-06-04T05:37:18;98842.66;;;19.21;59.78
78986;BME280;68384;55.750;48.746;2023-06-04T05:38:22;98830.59;;;19.09;60.12
78986;BME280;68384;55.750;48.746;2023-06-04T05:39:31;98831.56;;;19.03;59.78